Time;durP1;ratioP1;P1;durP2;ratioP2;P2;SDS_P1;SDS_P2;PMS_P1;PMS_P2;Temp;Humidity;BMP_temperature;BMP_pressure;BME280_temperature;BME280_humidity;BME280_pressure;Samples;Min_cycle;Max_cycle;Signal;HPM_P1;HPM_P2
2022/04/10 00:00:36;;;;;;;;;23.75;23.75;;;;;9.57;51.94;101785.31;4993985;27;45406;-84
2022/04/10 00:03:02;;;;;;;;;26.50;26.50;;;;;9.76;51.73;101817.72;5010466;28;45353;-84
2022/04/10 00:05:27;;;;;;;;;25.00;24.50;;;;;9.66;51.81;101806.41;4995287;27;45373;-84
2022/04/10 00:07:52;;;;;;;;;23.00;20.75;;;;;9.67;51.98;101813.50;4995226;27;52355;-83
2022/04/10 00:10:18;;;;;;;;;25.50;24.50;;;;;9.66;52.04;101807.25;4994940;27;50286;-83
2022/04/10 00:12:43;;;;;;;;;23.25;21.75;;;;;9.63;51.66;101818.00;4995355;28;45203;-84
2022/04/10 00:15:08;;;;;;;;;21.00;21.00;;;;;9.17;51.60;101728.53;4995008;28;45530;-84
2022/04/10 00:17:34;;;;;;;;;21.33;19.33;;;;;9.52;52.11;101783.63;4994571;28;45225;-84
2022/04/10 00:19:59;;;;;;;;;22.25;19.25;;;;;9.42;51.86;101775.91;4994874;28;45234;-84
2022/04/10 00:22:24;;;;;;;;;19.67;17.67;;;;;9.45;51.86;101779.34;4995128;28;45408;-84
2022/04/10 00:24:50;;;;;;;;;21.00;20.00;;;;;9.49;52.01;101790.81;4995313;28;45356;-84
2022/04/10 00:27:16;;;;;;;;;18.33;18.00;;;;;9.39;52.13;101781.28;4994990;28;45725;-83
2022/04/10 00:29:42;;;;;;;;;22.00;17.00;;;;;9.50;52.32;101804.09;4994767;27;45416;-83
2022/04/10 00:32:07;;;;;;;;;15.67;15.67;;;;;9.48;51.95;101805.03;4993716;28;45351;-83
2022/04/10 00:34:35;;;;;;;;;20.33;18.67;;;;;9.05;52.12;101742.97;4993998;27;45305;-83
2022/04/10 00:37:00;;;;;;;;;20.67;18.00;;;;;9.18;52.35;101766.69;4994794;28;45997;-83
2022/04/10 00:39:26;;;;;;;;;21.67;21.33;;;;;9.27;52.24;101779.75;4994901;27;45285;-84
2022/04/10 00:41:51;;;;;;;;;17.00;17.00;;;;;9.38;52.08;101798.16;4994947;28;45451;-84
2022/04/10 00:44:17;;;;;;;;;22.67;18.67;;;;;9.41;52.43;101800.75;4995086;27;45307;-83
2022/04/10 00:46:42;;;;;;;;;20.50;20.50;;;;;9.32;52.46;101799.19;4994595;28;46040;-84
2022/04/10 00:49:08;;;;;;;;;20.33;20.33;;;;;9.06;52.64;101757.16;4994299;28;45357;-84
2022/04/10 00:51:46;;;;;;;;;17.33;17.33;;;;;9.02;52.52;101758.16;4994852;28;45439;-84
2022/04/10 00:54:17;;;;;;;;;22.00;21.00;;;;;9.24;52.17;101799.31;4994541;27;45340;-83
2022/04/10 00:56:44;;;;;;;;;21.00;21.00;;;;;9.29;52.58;101804.53;4994292;28;45409;-83
2022/04/10 00:59:10;;;;;;;;;26.25;23.75;;;;;8.93;52.35;101742.38;4994653;27;45389;-83
2022/04/10 01:01:37;;;;;;;;;25.50;22.25;;;;;9.23;52.31;101808.22;4994509;28;45490;-83
2022/04/10 01:04:04;;;;;;;;;21.00;21.00;;;;;9.00;52.43;101757.28;4994705;28;45419;-84
2022/04/10 01:06:32;;;;;;;;;23.00;21.25;;;;;9.20;52.45;101804.72;4994374;27;45515;-83
2022/04/10 01:08:58;;;;;;;;;22.25;19.00;;;;;9.19;52.46;101805.66;4994512;28;45681;-83
2022/04/10 01:11:24;;;;;;;;;20.33;18.67;;;;;9.08;52.42;101796.13;4994265;27;45506;-83
2022/04/10 01:13:49;;;;;;;;;20.67;20.33;;;;;9.08;52.70;101811.19;4994818;27;45459;-84
2022/04/10 01:16:15;;;;;;;;;22.75;21.25;;;;;9.03;52.62;101799.78;4994339;27;45507;-84
2022/04/10 01:18:41;;;;;;;;;21.50;17.50;;;;;9.02;52.70;101798.91;4994174;27;45486;-83
2022/04/10 01:21:07;;;;;;;;;21.25;19.00;;;;;9.04;53.16;101801.53;4994180;27;45391;-83
2022/04/10 01:23:33;;;;;;;;;22.25;20.00;;;;;8.90;53.01;101779.66;4994471;27;45541;-84
2022/04/10 01:25:58;;;;;;;;;20.50;20.25;;;;;8.95;53.32;101791.97;4994023;27;45578;-83
2022/04/10 01:28:24;;;;;;;;;17.50;16.25;;;;;8.87;52.92;101784.16;4994043;28;45487;-83
2022/04/10 01:30:49;;;;;;;;;19.00;18.00;;;;;8.61;52.86;101726.16;4993468;27;45413;-83
2022/04/10 01:33:14;;;;;;;;;23.25;20.75;;;;;8.72;52.94;101749.00;4994109;28;45431;-83
2022/04/10 01:35:40;;;;;;;;;22.75;20.00;;;;;8.99;53.08;101801.63;4993410;27;45477;-83
2022/04/10 01:38:06;;;;;;;;;25.50;22.50;;;;;8.92;52.86;101797.34;4993816;27;45485;-83
2022/04/10 01:40:33;;;;;;;;;19.00;17.33;;;;;8.94;52.80;101794.63;4994012;28;45368;-83
2022/04/10 01:42:59;;;;;;;;;20.00;18.33;;;;;8.90;53.10;101793.84;4993902;27;45586;-83
2022/04/10 01:45:24;;;;;;;;;15.00;14.33;;;;;8.81;52.80;101784.25;4993447;27;45984;-83
2022/04/10 01:47:51;;;;;;;;;17.67;16.67;;;;;8.84;53.12;101797.47;4996422;28;45366;-83
2022/04/10 01:50:17;;;;;;;;;19.00;16.75;;;;;8.65;53.52;101758.88;4997080;28;45479;-83
2022/04/10 01:52:42;;;;;;;;;16.75;16.75;;;;;8.85;53.46;101790.41;4996808;28;45803;-83
2022/04/10 01:55:08;;;;;;;;;21.33;19.00;;;;;8.83;53.14;101786.88;4996605;28;45442;-83
2022/04/10 01:57:34;;;;;;;;;19.67;17.33;;;;;8.79;53.35;101783.41;4996816;28;45644;-83
2022/04/10 01:59:59;;;;;;;;;21.50;19.00;;;;;8.80;53.66;101777.19;4996634;28;45425;-83
2022/04/10 02:02:24;;;;;;;;;20.00;19.33;;;;;8.32;53.63;101697.47;4996939;27;45397;-83
2022/04/10 02:04:51;;;;;;;;;23.00;20.00;;;;;8.65;53.37;101764.19;4996594;27;46231;-83
2022/04/10 02:07:17;;;;;;;;;25.33;19.33;;;;;8.74;52.97;101782.63;4996870;27;45369;-83
2022/04/10 02:09:42;;;;;;;;;24.67;20.33;;;;;8.48;53.28;101732.63;4996652;27;45342;-83
2022/04/10 02:12:08;;;;;;;;;18.67;18.67;;;;;8.73;53.35;101780.84;4997032;27;45387;-84
2022/04/10 02:14:34;;;;;;;;;18.33;17.67;;;;;8.67;53.21;101783.66;4996424;27;45368;-84
2022/04/10 02:16:59;;;;;;;;;23.00;20.00;;;;;8.55;53.64;101762.63;4995973;28;51845;-83
2022/04/10 02:19:24;;;;;;;;;19.67;19.67;;;;;8.38;53.35;101734.56;4996851;28;45365;-83
2022/04/10 02:21:50;;;;;;;;;20.33;20.00;;;;;8.61;53.86;101781.97;4996863;28;45357;-83
2022/04/10 02:24:16;;;;;;;;;21.00;18.67;;;;;8.61;53.37;101781.09;4996540;28;45384;-83
2022/04/10 02:26:42;;;;;;;;;23.25;19.00;;;;;8.58;53.92;101781.16;4997672;28;45679;-83
2022/04/10 02:29:07;;;;;;;;;13.33;13.33;;;;;8.59;53.78;101789.13;5016567;28;45469;-83
2022/04/10 02:31:33;;;;;;;;;25.25;22.00;;;;;8.59;53.50;101785.56;5016810;28;45573;-84
2022/04/10 02:33:58;;;;;;;;;21.00;19.00;;;;;8.31;53.96;101743.56;5016057;28;46340;-83
2022/04/10 02:36:23;;;;;;;;;22.50;20.50;;;;;8.57;53.80;101785.59;5016174;28;45471;-83
2022/04/10 02:38:49;;;;;;;;;8.50;7.00;;;;;8.54;53.72;101793.63;5016379;28;45422;-83
2022/04/10 02:41:14;;;;;;;;;19.75;19.25;;;;;8.43;54.23;101771.72;5006454;28;45411;-83
2022/04/10 02:43:40;;;;;;;;;23.25;21.25;;;;;8.34;53.96;101766.53;4996038;28;45541;-83
2022/04/10 02:46:05;;;;;;;;;21.00;19.75;;;;;8.47;53.94;101791.09;4995765;28;45764;-83
2022/04/10 02:48:31;;;;;;;;;21.00;19.50;;;;;8.48;53.90;101790.22;4996466;28;45314;-83
2022/04/10 02:50:56;;;;;;;;;22.75;19.50;;;;;8.19;53.83;101752.63;4996624;28;45522;-83
2022/04/10 02:53:22;;;;;;;;;22.50;21.50;;;;;8.36;53.73;101786.84;4995985;27;45902;-83
2022/04/10 02:55:47;;;;;;;;;25.75;24.00;;;;;8.38;53.95;101795.66;4995732;28;45747;-83
2022/04/10 02:58:13;;;;;;;;;23.50;22.25;;;;;8.07;53.76;101747.50;4995428;28;45708;-83
2022/04/10 03:00:38;;;;;;;;;23.25;20.75;;;;;8.27;54.26;101778.16;4996500;28;45615;-84
2022/04/10 03:03:04;;;;;;;;;22.25;21.00;;;;;8.22;54.16;101779.09;4995591;28;47012;-83
2022/04/10 03:05:29;;;;;;;;;21.25;20.75;;;;;7.89;54.49;101732.78;4996079;28;45325;-83
2022/04/10 03:07:54;;;;;;;;;20.50;19.00;;;;;8.12;54.52;101798.75;4995879;28;45289;-83
2022/04/10 03:10:20;;;;;;;;;24.50;21.50;;;;;7.78;54.36;101730.28;4995272;28;45447;-83
2022/04/10 03:12:45;;;;;;;;;24.75;18.75;;;;;8.22;54.65;101795.03;4995090;28;45424;-83
2022/04/10 03:15:11;;;;;;;;;25.25;22.25;;;;;8.20;54.03;101802.16;4995454;28;45417;-83
2022/04/10 03:17:36;;;;;;;;;20.25;20.00;;;;;8.19;54.42;101803.06;4996091;28;45509;-83
2022/04/10 03:20:02;;;;;;;;;23.50;20.00;;;;;7.96;54.28;101768.94;4995889;28;45579;-83
2022/04/10 03:22:27;;;;;;;;;25.50;25.50;;;;;7.91;54.27;101777.84;4996019;28;46529;-83
2022/04/10 03:24:53;;;;;;;;;22.25;22.25;;;;;8.07;54.61;101808.56;4995815;28;45385;-84
2022/04/10 03:27:18;;;;;;;;;21.75;21.00;;;;;8.02;54.65;101811.28;4995784;28;45355;-83
2022/04/10 03:29:43;;;;;;;;;16.75;16.75;;;;;7.77;55.03;101768.34;4996172;28;45602;-83
2022/04/10 03:32:09;;;;;;;;;19.00;17.25;;;;;7.93;54.54;101791.97;4995432;28;46068;-83
2022/04/10 03:34:34;;;;;;;;;20.75;20.75;;;;;7.74;54.62;101760.41;4995679;28;45433;-83
2022/04/10 03:36:59;;;;;;;;;20.50;20.50;;;;;7.89;54.78;101788.50;4995572;28;45387;-83
2022/04/10 03:39:25;;;;;;;;;23.75;20.25;;;;;7.89;54.98;101785.88;4996335;28;45263;-83
2022/04/10 03:41:50;;;;;;;;;30.00;23.00;;;;;7.68;54.74;101751.66;4994898;28;45567;-83
2022/04/10 03:44:15;;;;;;;;;21.75;20.50;;;;;7.98;54.62;101809.59;4995346;28;45477;-83
2022/04/10 03:46:41;;;;;;;;;26.25;21.75;;;;;7.89;55.25;101796.47;4994509;28;45255;-83
2022/04/10 03:49:07;;;;;;;;;20.75;20.75;;;;;7.93;54.80;101808.78;4995504;27;45326;-83
2022/04/10 03:51:32;;;;;;;;;27.00;21.25;;;;;7.45;54.86;101729.03;4995294;28;45272;-83
2022/04/10 03:53:58;;;;;;;;;21.00;18.00;;;;;7.73;55.49;101776.38;4995184;28;45358;-82
2022/04/10 03:56:24;;;;;;;;;20.75;19.75;;;;;7.78;55.27;101783.38;4995768;28;45320;-83
2022/04/10 03:58:49;;;;;;;;;17.25;16.00;;;;;7.84;55.33;101806.25;4995958;28;45532;-83
2022/04/10 04:01:14;;;;;;;;;23.75;19.75;;;;;7.52;55.19;101751.91;4993925;28;47084;-83
2022/04/10 04:03:39;;;;;;;;;22.00;20.75;;;;;7.76;55.55;101809.03;4995813;28;45264;-83
2022/04/10 04:06:05;;;;;;;;;24.00;20.00;;;;;7.79;55.54;101811.63;4995251;28;45242;-83
2022/04/10 04:08:30;;;;;;;;;23.00;20.75;;;;;7.62;55.07;101771.22;4996006;28;45168;-83
2022/04/10 04:10:56;;;;;;;;;20.75;20.75;;;;;7.80;55.25;101801.94;4994926;28;46156;-83
2022/04/10 04:13:21;;;;;;;;;22.75;21.75;;;;;7.69;55.16;101779.97;4994888;28;45245;-83
2022/04/10 04:15:46;;;;;;;;;20.50;18.75;;;;;7.48;55.51;101738.72;4995301;28;45650;-83
2022/04/10 04:18:12;;;;;;;;;24.50;18.00;;;;;7.81;54.94;101796.56;4995121;28;45383;-83
2022/04/10 04:20:37;;;;;;;;;27.25;23.75;;;;;7.80;55.43;101797.50;4995028;28;50143;-83
2022/04/10 04:23:03;;;;;;;;;21.75;18.50;;;;;7.69;55.01;101786.16;4995093;28;45324;-83
2022/04/10 04:25:28;;;;;;;;;20.50;19.50;;;;;7.66;55.03;101790.66;4993688;28;45340;-83
2022/04/10 04:27:53;;;;;;;;;23.50;19.25;;;;;7.60;55.26;101773.03;4995506;28;45267;-83
2022/04/10 04:30:19;;;;;;;;;21.25;21.00;;;;;7.48;54.92;101757.28;4994618;27;46121;-83
2022/04/10 04:32:44;;;;;;;;;20.75;20.50;;;;;7.64;54.78;101789.78;4994182;27;45355;-83
2022/04/10 04:35:10;;;;;;;;;17.50;17.50;;;;;7.73;54.90;101816.19;4994105;27;45421;-84
2022/04/10 04:37:42;;;;;;;;;18.00;18.00;;;;;7.71;54.92;101810.03;4996609;28;45373;-84
2022/04/10 04:40:09;;;;;;;;;22.50;21.50;;;;;7.55;55.39;101788.13;4993686;27;46354;-84
2022/04/10 04:42:34;;;;;;;;;21.50;21.25;;;;;7.68;55.33;101820.66;4994320;28;45503;-84
2022/04/10 04:44:59;;;;;;;;;20.00;18.25;;;;;7.31;55.28;101779.63;4992016;28;45516;-83
2022/04/10 04:47:25;;;;;;;;;16.67;15.33;;;;;7.58;55.05;101822.56;4994441;28;45379;-85
2022/04/10 04:49:50;;;;;;;;;20.00;17.50;;;;;7.54;55.15;101823.53;4991211;28;45480;-86
2022/04/10 04:52:16;;;;;;;;;22.00;18.00;;;;;7.59;55.38;101845.56;5018804;27;45500;-84
2022/04/10 04:54:42;;;;;;;;;17.75;17.75;;;;;7.55;55.67;101843.84;4983157;28;45441;-84
2022/04/10 04:57:08;;;;;;;;;22.25;21.75;;;;;7.27;55.42;101799.13;4997172;28;46545;-86
2022/04/10 04:59:33;;;;;;;;;14.25;11.25;;;;;7.54;55.53;101839.44;4993646;28;45522;-85
2022/04/10 05:01:59;;;;;;;;;17.00;14.50;;;;;7.33;55.60;101809.66;4998066;28;45571;-86
2022/04/10 05:04:24;;;;;;;;;22.25;16.50;;;;;7.33;55.52;101812.31;4994018;27;45235;-85
2022/04/10 05:06:49;;;;;;;;;20.00;18.25;;;;;7.51;55.83;101842.13;5000395;28;45322;-85
2022/04/10 05:09:15;;;;;;;;;14.25;13.25;;;;;7.40;55.36;101829.88;4999627;28;45485;-85
2022/04/10 05:11:40;;;;;;;;;13.33;13.33;;;;;7.45;55.39;101836.91;5001811;28;45644;-85
2022/04/10 05:14:06;;;;;;;;;12.00;11.33;;;;;7.36;55.67;101824.66;4993864;27;45443;-85
2022/04/10 05:16:31;;;;;;;;;15.67;14.00;;;;;7.34;55.38;101811.41;5006938;27;45269;-85
2022/04/10 05:18:56;;;;;;;;;15.00;14.33;;;;;7.45;55.51;101840.44;4994126;28;45597;-85
2022/04/10 05:21:22;;;;;;;;;15.00;14.75;;;;;7.50;55.51;101845.69;4995248;27;45534;-84
2022/04/10 05:23:47;;;;;;;;;15.00;11.33;;;;;7.53;55.48;101854.47;4997253;27;45335;-85
2022/04/10 05:26:12;;;;;;;;;16.50;15.50;;;;;7.11;55.73;101781.66;4997205;27;45496;-85
2022/04/10 05:28:38;;;;;;;;;16.67;12.00;;;;;7.53;55.20;101857.13;4996520;28;46227;-85
2022/04/10 05:31:04;;;;;;;;;15.00;14.00;;;;;7.44;55.09;101836.00;5008189;28;45308;-86
2022/04/10 05:33:32;;;;;;;;;14.75;13.25;;;;;7.55;55.43;101863.28;4996949;27;45523;-85
2022/04/10 05:35:58;;;;;;;;;15.00;15.00;;;;;7.53;55.63;101865.06;4995667;28;45394;-85
2022/04/10 05:38:23;;;;;;;;;16.75;15.25;;;;;7.54;55.29;101865.97;4996304;27;46134;-85
2022/04/10 05:40:52;;;;;;;;;14.00;14.00;;;;;7.42;55.23;101855.50;4996803;28;45278;-85
2022/04/10 05:43:21;;;;;;;;;16.00;14.25;;;;;7.55;54.96;101878.34;4996367;27;45484;-85
2022/04/10 05:45:47;;;;;;;;;16.50;16.50;;;;;7.53;55.29;101881.00;4996686;28;45503;-86
2022/04/10 05:48:12;;;;;;;;;18.00;16.50;;;;;7.35;55.88;101852.03;4996328;27;46178;-85
2022/04/10 05:50:38;;;;;;;;;19.00;16.25;;;;;7.22;55.47;101821.28;4995588;27;45505;-85
2022/04/10 05:53:04;;;;;;;;;18.00;16.50;;;;;7.57;55.67;101888.03;4996720;27;45610;-86
2022/04/10 05:55:29;;;;;;;;;16.50;14.00;;;;;7.62;55.97;101887.97;4996484;28;45530;-86
2022/04/10 05:57:55;;;;;;;;;20.00;18.50;;;;;7.53;56.62;101861.56;4996135;28;45912;-86
2022/04/10 06:00:23;;;;;;;;;19.50;17.75;;;;;7.47;55.86;101843.06;4995853;27;45260;-86
2022/04/10 06:02:49;;;;;;;;;21.50;18.50;;;;;7.78;55.70;101892.16;4980414;28;45538;-85
2022/04/10 06:05:14;;;;;;;;;22.00;20.00;;;;;7.48;55.94;101836.88;5011096;28;45373;-86
2022/04/10 06:07:40;;;;;;;;;19.75;18.25;;;;;7.70;55.97;101861.31;5001078;28;45475;-85
2022/04/10 06:10:06;;;;;;;;;20.00;18.75;;;;;7.93;55.87;101904.34;5001674;27;45418;-86
2022/04/10 06:12:31;;;;;;;;;20.00;17.00;;;;;7.83;55.74;101874.41;4995977;28;45428;-86
2022/04/10 06:14:56;;;;;;;;;20.50;17.50;;;;;8.03;55.47;101898.03;5002171;28;45484;-86
2022/04/10 06:17:22;;;;;;;;;17.75;17.25;;;;;8.03;54.99;101891.84;4995723;28;55566;-85
2022/04/10 06:19:47;;;;;;;;;19.75;18.50;;;;;7.69;55.64;101820.66;4996106;27;45489;-85
2022/04/10 06:22:14;;;;;;;;;20.25;19.50;;;;;8.17;55.16;101896.91;4996109;28;45394;-85
2022/04/10 06:24:40;;;;;;;;;21.75;19.50;;;;;8.11;54.90;101870.47;4996039;27;45307;-85
2022/04/10 06:27:05;;;;;;;;;16.00;16.00;;;;;8.35;54.38;101904.59;4996024;28;46214;-86
2022/04/10 06:29:30;;;;;;;;;21.50;19.50;;;;;8.42;54.64;101900.09;4995618;27;45421;-85
2022/04/10 06:31:56;;;;;;;;;18.50;17.25;;;;;8.49;54.33;101893.78;4995578;28;45550;-86
2022/04/10 06:34:21;;;;;;;;;22.50;21.75;;;;;8.57;54.26;101901.63;4995964;28;45316;-86
2022/04/10 06:36:47;;;;;;;;;20.00;19.50;;;;;8.32;53.71;101846.22;4995766;27;45332;-86
2022/04/10 06:39:16;;;;;;;;;17.75;15.25;;;;;8.42;54.23;101852.28;4996135;28;45407;-86
2022/04/10 06:41:42;;;;;;;;;17.00;17.00;;;;;8.73;54.01;101895.13;4999530;28;45388;-86
2022/04/10 06:44:08;;;;;;;;;16.25;14.25;;;;;8.78;53.97;101888.00;4997509;28;45255;-86
2022/04/10 06:46:33;;;;;;;;;27.75;21.25;;;;;8.50;52.99;101831.78;5002699;28;47302;-85
2022/04/10 06:48:58;;;;;;;;;28.00;23.00;;;;;8.26;53.51;101806.47;4995620;27;45421;-86
2022/04/10 06:51:24;;;;;;;;;25.00;21.75;;;;;8.69;52.83;101856.25;4996041;28;45758;-86
2022/04/10 06:53:49;;;;;;;;;26.00;23.25;;;;;8.85;53.33;101864.84;5005897;27;45239;-86
2022/04/10 06:56:15;;;;;;;;;25.25;25.25;;;;;9.06;52.84;101896.34;5000796;28;46288;-86
2022/04/10 06:58:41;;;;;;;;;20.00;19.50;;;;;9.14;52.38;101905.94;5012609;28;45643;-86
2022/04/10 07:01:06;;;;;;;;;21.00;19.75;;;;;9.13;52.52;101888.22;5014906;28;45230;-86
2022/04/10 07:03:32;;;;;;;;;21.00;21.00;;;;;9.15;53.19;101873.97;4994918;28;45546;-86
2022/04/10 07:05:58;;;;;;;;;24.50;23.50;;;;;9.13;51.98;101850.97;4995195;28;45498;-86
2022/04/10 07:08:23;;;;;;;;;24.00;22.25;;;;;9.37;51.68;101887.75;4995302;28;45562;-87
2022/04/10 07:10:49;;;;;;;;;26.75;25.75;;;;;8.96;51.96;101817.63;4995424;28;45306;-87
2022/04/10 07:13:17;;;;;;;;;20.50;17.50;;;;;9.33;52.07;101863.91;4995890;28;45546;-87
2022/04/10 07:15:46;;;;;;;;;17.25;15.00;;;;;9.60;51.83;101889.03;4995192;27;46235;-86
2022/04/10 07:18:11;;;;;;;;;23.50;21.25;;;;;9.66;51.51;101886.25;4995310;27;45421;-86
2022/04/10 07:20:37;;;;;;;;;21.50;21.00;;;;;9.72;50.80;101897.66;4995553;27;45397;-86
2022/04/10 07:25:46;;;;;;;;;22.67;22.67;;;;;9.86;51.19;101892.03;4995274;28;45459;-87
2022/04/10 07:28:14;;;;;;;;;21.33;20.67;;;;;9.95;51.06;101896.28;4994349;27;45349;-86
2022/04/10 07:30:39;;;;;;;;;25.25;25.25;;;;;10.05;51.31;101888.94;4994791;28;45505;-86
2022/04/10 07:33:05;;;;;;;;;27.25;23.75;;;;;9.91;51.28;101851.97;4995098;27;45308;-86
2022/04/10 07:35:31;;;;;;;;;18.25;15.00;;;;;10.26;51.62;101891.09;4994716;27;45453;-87
2022/04/10 07:37:56;;;;;;;;;23.75;20.25;;;;;10.40;50.91;101889.94;4997865;28;45408;-86
2022/04/10 07:40:22;;;;;;;;;28.00;26.00;;;;;10.40;50.20;101869.50;5003708;28;45388;-87
2022/04/10 07:42:48;;;;;;;;;27.00;23.50;;;;;10.31;50.11;101835.94;4995574;28;45625;-87
2022/04/10 07:47:59;;;;;;;;;23.75;21.75;;;;;10.77;50.52;101872.09;4995982;28;45564;-86
2022/04/10 07:50:24;;;;;;;;;23.75;20.75;;;;;10.77;50.40;101855.22;4995301;28;45510;-87
2022/04/10 07:52:50;;;;;;;;;24.50;23.00;;;;;11.10;49.42;101890.78;4995553;27;45505;-87
2022/04/10 07:55:15;;;;;;;;;30.25;27.25;;;;;11.22;49.55;101883.34;4994902;28;45319;-87
2022/04/10 07:57:40;;;;;;;;;26.75;25.25;;;;;11.34;49.42;101885.66;4995198;27;45152;-88
2022/04/10 08:00:06;;;;;;;;;27.25;26.25;;;;;11.40;49.15;101873.00;4994621;27;47692;-88
2022/04/10 08:02:32;;;;;;;;;27.25;27.00;;;;;11.26;49.45;101826.28;4993840;28;45534;-87
2022/04/10 08:04:57;;;;;;;;;30.50;27.50;;;;;11.76;48.26;101878.16;4993412;28;48275;-87
2022/04/10 08:07:23;;;;;;;;;31.00;26.50;;;;;11.84;48.08;101872.59;5001109;28;45480;-88
2022/04/10 08:09:48;;;;;;;;;27.00;25.33;;;;;12.00;47.89;101883.72;5015438;28;45493;-88
2022/04/10 08:12:16;;;;;;;;;28.67;27.67;;;;;11.77;47.38;101806.94;4996514;28;45558;-88
2022/04/10 08:14:43;;;;;;;;;26.00;26.00;;;;;12.34;46.98;101874.59;4994751;28;47760;-88
2022/04/10 08:17:11;;;;;;;;;28.67;27.67;;;;;12.62;46.46;101870.09;4994118;28;45699;-87
2022/04/10 08:19:37;;;;;;;;;24.67;22.67;;;;;12.96;45.70;101858.19;4995144;27;45539;-88
2022/04/10 08:22:03;;;;;;;;;20.67;20.33;;;;;13.54;44.15;101878.44;4980971;28;45335;-88
2022/04/10 08:24:28;;;;;;;;;23.00;21.67;;;;;14.17;43.23;101873.31;4994398;27;45566;-86
2022/04/10 08:26:53;;;;;;;;;22.00;21.33;;;;;14.94;41.42;101862.91;4994334;28;45553;-87
2022/04/10 08:29:19;;;;;;;;;18.67;18.67;;;;;15.69;41.07;101862.16;4993652;27;45487;-86
2022/04/10 08:31:44;;;;;;;;;22.00;19.00;;;;;16.50;38.94;101856.47;4993565;28;45628;-85
2022/04/10 08:34:09;;;;;;;;;19.00;18.67;;;;;17.28;38.30;101857.81;4992862;28;47345;-86
2022/04/10 08:36:35;;;;;;;;;19.00;18.33;;;;;17.95;36.95;101861.28;4996887;28;45939;-87
2022/04/10 08:39:00;;;;;;;;;21.67;20.33;;;;;18.21;36.11;101856.22;4994670;28;45477;-86
2022/04/10 08:41:31;;;;;;;;;20.33;17.67;;;;;18.41;35.75;101838.88;4995084;28;45370;-85
2022/04/10 08:44:00;;;;;;;;;22.33;19.33;;;;;18.67;34.85;101851.69;4994380;28;46232;-87
2022/04/10 08:46:26;;;;;;;;;19.33;17.33;;;;;18.78;35.56;101856.47;4993995;28;45396;-87
2022/04/10 08:48:54;;;;;;;;;22.00;20.33;;;;;18.86;35.08;101856.88;4994603;28;45329;-85
2022/04/10 08:51:20;;;;;;;;;18.00;18.00;;;;;18.91;34.39;101849.34;4995353;28;45403;-88
2022/04/10 08:53:46;;;;;;;;;12.67;12.67;;;;;18.90;33.67;101811.63;5002045;28;45428;-86
2022/04/10 08:56:12;;;;;;;;;16.33;15.33;;;;;19.10;33.11;101808.53;4997902;28;45504;-85
2022/04/10 08:58:37;;;;;;;;;14.33;10.67;;;;;19.60;31.79;101853.16;4995069;27;45255;-87
2022/04/10 09:01:03;;;;;;;;;12.33;10.67;;;;;19.42;31.97;101794.84;4996322;27;45582;-84
2022/04/10 09:03:28;;;;;;;;;9.33;8.00;;;;;19.76;31.10;101817.91;4998157;28;45966;-86
2022/04/10 09:06:02;;;;;;;;;7.00;6.00;;;;;20.13;30.68;101849.78;4999131;28;45420;-83
2022/04/10 09:08:27;;;;;;;;;9.33;6.67;;;;;20.19;29.52;101836.69;4995193;28;45442;-82
2022/04/10 09:10:57;;;;;;;;;4.67;3.33;;;;;20.48;29.49;101846.53;4998180;28;45613;-86
2022/04/10 09:13:35;;;;;;;;;7.33;6.33;;;;;20.55;28.46;101837.88;4995193;28;46082;-86
2022/04/10 09:16:21;;;;;;;;;4.67;4.67;;;;;20.83;28.53;101852.28;4995284;28;45499;-86
2022/04/10 09:18:56;;;;;;;;;6.33;6.33;;;;;21.10;27.97;101849.47;5007416;28;45396;-85
2022/04/10 09:21:24;;;;;;;;;6.33;5.33;;;;;21.31;28.34;101846.22;4993748;28;45552;-85
2022/04/10 09:24:04;;;;;;;;;4.67;4.67;;;;;21.26;26.88;101827.56;4997125;27;48762;-85
2022/04/10 09:26:47;;;;;;;;;5.67;5.67;;;;;21.37;27.11;101827.66;4993495;27;45400;-85
2022/04/10 09:29:17;;;;;;;;;5.67;5.67;;;;;21.48;27.09;101840.47;4985760;28;45369;-85
2022/04/10 09:31:43;;;;;;;;;6.33;6.33;;;;;21.46;26.55;101835.16;4993759;27;45420;-85
2022/04/10 09:34:11;;;;;;;;;5.00;5.00;;;;;21.73;27.40;101850.44;4992713;28;45336;-85
2022/04/10 09:36:38;;;;;;;;;7.00;5.33;;;;;21.95;26.81;101852.41;4993673;28;45440;-85
2022/04/10 09:39:07;;;;;;;;;6.00;6.00;;;;;21.98;26.15;101849.47;4993046;28;45237;-85
2022/04/10 09:41:32;;;;;;;;;6.33;6.00;;;;;21.97;26.22;101846.88;4993928;27;45501;-85
2022/04/10 09:44:14;;;;;;;;;5.67;5.33;;;;;22.03;27.27;101844.56;5001437;28;46661;-86
2022/04/10 09:46:40;;;;;;;;;4.67;4.00;;;;;22.16;25.58;101839.06;4993267;27;45742;-87
2022/04/10 09:49:11;;;;;;;;;5.00;5.00;;;;;21.98;25.29;101805.16;4993036;27;45257;-86
2022/04/10 09:51:37;;;;;;;;;5.33;4.00;;;;;22.14;25.71;101813.88;4994099;28;45524;-86
2022/04/10 09:54:04;;;;;;;;;3.00;3.00;;;;;22.53;25.17;101845.31;4993548;28;45601;-86
2022/04/10 09:56:30;;;;;;;;;4.00;4.00;;;;;22.72;25.21;101825.75;4993728;28;45351;-87
2022/04/10 09:58:58;;;;;;;;;6.00;5.00;;;;;22.75;25.16;101800.16;4993772;27;45348;-86
2022/04/10 10:01:25;;;;;;;;;3.00;3.00;;;;;23.30;24.49;101817.56;4993128;28;45626;-87
2022/04/10 10:03:52;;;;;;;;;5.33;5.00;;;;;23.41;24.03;101753.25;4996749;28;45690;-85
2022/04/10 10:06:19;;;;;;;;;5.00;3.67;;;;;23.97;23.17;101783.94;4995079;28;45452;-87
2022/04/10 10:08:45;;;;;;;;;3.00;3.00;;;;;24.28;23.14;101784.09;4996519;28;45396;-87
2022/04/10 10:11:11;;;;;;;;;4.67;4.67;;;;;24.59;23.09;101795.97;4999768;28;45498;-89
2022/04/10 10:13:43;;;;;;;;;5.00;4.33;;;;;24.61;22.56;101760.41;4997995;27;48537;-88
2022/04/10 10:16:10;;;;;;;;;4.33;2.33;;;;;24.89;21.47;101780.66;4993620;27;45981;-87
2022/04/10 10:18:39;;;;;;;;;4.33;4.33;;;;;24.49;21.37;101726.91;4997988;28;45616;-87
2022/04/10 10:21:07;;;;;;;;;3.33;2.67;;;;;24.61;22.78;101813.06;4995337;27;45513;-87
2022/04/10 10:23:36;;;;;;;;;4.00;3.33;;;;;24.02;23.05;101808.06;5012198;28;46142;-87
2022/04/10 10:26:23;;;;;;;;;3.33;3.33;;;;;23.79;23.18;101815.47;4996803;28;45233;-87
2022/04/10 10:29:13;;;;;;;;;4.00;3.00;;;;;23.81;23.46;101816.16;4996282;27;45400;-88
2022/04/10 10:32:11;;;;;;;;;3.33;3.33;;;;;23.79;23.28;101793.69;4994872;28;45495;-87
2022/04/10 10:34:36;;;;;;;;;2.00;2.00;;;;;23.91;23.33;101797.25;5010127;27;47339;-87
2022/04/10 10:37:03;;;;;;;;;2.67;2.33;;;;;23.76;22.55;101772.13;4996121;28;45569;-87
2022/04/10 10:39:33;;;;;;;;;4.67;4.67;;;;;24.01;22.82;101793.59;4996345;27;45444;-87
2022/04/10 10:42:15;;;;;;;;;5.00;5.00;;;;;23.76;23.04;101718.56;4996283;27;45339;-87
2022/04/10 10:44:59;;;;;;;;;2.67;2.67;;;;;23.76;22.40;101675.00;4996472;28;46582;-86
2022/04/10 10:47:31;;;;;;;;;4.33;4.00;;;;;24.07;21.89;101687.84;4994847;28;45494;-88
2022/04/10 10:49:57;;;;;;;;;4.00;4.00;;;;;24.55;21.98;101723.63;4996835;28;45382;-88
2022/04/10 10:52:24;;;;;;;;;3.00;3.00;;;;;24.60;21.54;101646.91;4995571;28;45248;-88
2022/04/10 10:54:58;;;;;;;;;2.00;2.00;;;;;26.47;20.90;101785.38;4995161;28;46203;-88
2022/04/10 10:57:31;;;;;;;;;3.33;2.33;;;;;27.49;19.44;101787.44;4992394;28;45558;-86
2022/04/10 11:00:23;;;;;;;;;3.00;3.00;;;;;28.52;19.58;101777.03;4995404;27;45320;-86
2022/04/10 11:02:53;;;;;;;;;3.00;2.33;;;;;29.28;17.80;101771.84;4995099;27;45278;-87
2022/04/10 11:05:24;;;;;;;;;3.00;3.00;;;;;30.07;17.85;101773.31;4995598;28;46428;-87
2022/04/10 11:08:07;;;;;;;;;2.00;2.00;;;;;30.81;17.27;101765.03;4996052;28;45334;-86
2022/04/10 11:10:51;;;;;;;;;2.67;2.67;;;;;31.15;16.39;101695.09;4994478;27;45477;-88
2022/04/10 11:13:18;;;;;;;;;3.33;3.33;;;;;31.92;16.24;101756.66;4995519;28;45401;-89
2022/04/10 11:15:52;;;;;;;;;31.33;30.33;;;;;31.96;15.87;101744.25;4995506;27;45345;-87
2022/04/10 11:18:25;;;;;;;;;3.00;3.00;;;;;32.48;15.65;101750.88;4994488;28;45257;-87
2022/04/10 11:20:58;;;;;;;;;5.00;5.00;;;;;31.88;15.07;101625.69;4995780;28;45388;-87